<?xml version="1.0" encoding="UTF-8" standalone="no" ?>
<gpx xmlns="http://www.topografix.com/GPX/1/1" xmlns:xsi="http://www.w3.org/2001/XMLSchema-instance" xsi:schemaLocation="http://www.topografix.com/GPX/1/1 http://www.topografix.com/GPX/1/1/gpx.xsd" version="1.1" creator="VisuGPX - https://www.visugpx.com">
  <metadata>
    <name>83-Sej-seyne</name>
    <desc><![CDATA[visite village]]></desc>
  </metadata>
  <trk>
    <name><![CDATA[2012-06-24-seyne]]></name>
    <trkseg>
      <trkpt lat="44.34983" lon="6.36022">
        <ele>1134.82959</ele>
        <time>2012-06-24T13:47:31Z</time>
      </trkpt>
      <trkpt lat="44.34988" lon="6.36029">
        <ele>1136.322998</ele>
        <time>2012-06-24T13:47:43Z</time>
      </trkpt>
      <trkpt lat="44.34996" lon="6.36036">
        <ele>1137.884766</ele>
        <time>2012-06-24T13:47:54Z</time>
      </trkpt>
      <trkpt lat="44.35001" lon="6.36046">
        <ele>1138.489136</ele>
        <time>2012-06-24T13:48:07Z</time>
      </trkpt>
      <trkpt lat="44.35005" lon="6.36056">
        <ele>1140.519043</ele>
        <time>2012-06-24T13:48:17Z</time>
      </trkpt>
      <trkpt lat="44.35007" lon="6.36068">
        <ele>1141.609375</ele>
        <time>2012-06-24T13:48:27Z</time>
      </trkpt>
      <trkpt lat="44.35012" lon="6.36078">
        <ele>1142.050659</ele>
        <time>2012-06-24T13:48:37Z</time>
      </trkpt>
      <trkpt lat="44.35012" lon="6.36079">
        <ele>1142.056641</ele>
        <time>2012-06-24T13:48:38Z</time>
      </trkpt>
      <trkpt lat="44.35025" lon="6.36088">
        <ele>1144.599976</ele>
        <time>2012-06-24T13:49:07Z</time>
      </trkpt>
      <trkpt lat="44.35033" lon="6.36083">
        <ele>1145.5</ele>
        <time>2012-06-24T13:49:15Z</time>
      </trkpt>
      <trkpt lat="44.3504" lon="6.36077">
        <ele>1146.099976</ele>
        <time>2012-06-24T13:49:37Z</time>
      </trkpt>
      <trkpt lat="44.35046" lon="6.36068">
        <ele>1146.699951</ele>
        <time>2012-06-24T13:49:44Z</time>
      </trkpt>
      <trkpt lat="44.35047" lon="6.36066">
        <ele>1146.699951</ele>
        <time>2012-06-24T13:49:45Z</time>
      </trkpt>
      <trkpt lat="44.3506" lon="6.3606">
        <ele>1147.900024</ele>
        <time>2012-06-24T13:49:55Z</time>
      </trkpt>
      <trkpt lat="44.35066" lon="6.36051">
        <ele>1148.900024</ele>
        <time>2012-06-24T13:50:03Z</time>
      </trkpt>
      <trkpt lat="44.3507" lon="6.36042">
        <ele>1149.599976</ele>
        <time>2012-06-24T13:50:09Z</time>
      </trkpt>
      <trkpt lat="44.35073" lon="6.3603">
        <ele>1150.300049</ele>
        <time>2012-06-24T13:50:16Z</time>
      </trkpt>
      <trkpt lat="44.35077" lon="6.3602">
        <ele>1151.400024</ele>
        <time>2012-06-24T13:50:25Z</time>
      </trkpt>
      <trkpt lat="44.35076" lon="6.36007">
        <ele>1152.5</ele>
        <time>2012-06-24T13:50:35Z</time>
      </trkpt>
      <trkpt lat="44.3508" lon="6.35997">
        <ele>1153.699951</ele>
        <time>2012-06-24T13:50:43Z</time>
      </trkpt>
      <trkpt lat="44.35081" lon="6.35986">
        <ele>1154.599976</ele>
        <time>2012-06-24T13:50:57Z</time>
      </trkpt>
      <trkpt lat="44.35082" lon="6.35984">
        <ele>1154.800049</ele>
        <time>2012-06-24T13:50:58Z</time>
      </trkpt>
      <trkpt lat="44.35095" lon="6.35972">
        <ele>1155.900024</ele>
        <time>2012-06-24T13:51:13Z</time>
      </trkpt>
      <trkpt lat="44.35101" lon="6.35964">
        <ele>1157.400024</ele>
        <time>2012-06-24T13:51:22Z</time>
      </trkpt>
      <trkpt lat="44.35107" lon="6.35955">
        <ele>1158.599976</ele>
        <time>2012-06-24T13:51:40Z</time>
      </trkpt>
      <trkpt lat="44.35116" lon="6.35952">
        <ele>1159.5</ele>
        <time>2012-06-24T13:51:46Z</time>
      </trkpt>
      <trkpt lat="44.35122" lon="6.35944">
        <ele>1160.099976</ele>
        <time>2012-06-24T13:52:01Z</time>
      </trkpt>
      <trkpt lat="44.35123" lon="6.35945">
        <ele>1160</ele>
        <time>2012-06-24T13:52:02Z</time>
      </trkpt>
      <trkpt lat="44.35133" lon="6.35926">
        <ele>1160</ele>
        <time>2012-06-24T13:52:17Z</time>
      </trkpt>
      <trkpt lat="44.35134" lon="6.35915">
        <ele>1159.5</ele>
        <time>2012-06-24T13:52:24Z</time>
      </trkpt>
      <trkpt lat="44.35138" lon="6.35906">
        <ele>1159.599976</ele>
        <time>2012-06-24T13:52:30Z</time>
      </trkpt>
      <trkpt lat="44.35145" lon="6.35898">
        <ele>1159.599976</ele>
        <time>2012-06-24T13:52:37Z</time>
      </trkpt>
      <trkpt lat="44.35151" lon="6.35891">
        <ele>1159.900024</ele>
        <time>2012-06-24T13:52:51Z</time>
      </trkpt>
      <trkpt lat="44.35158" lon="6.35887">
        <ele>1159.699951</ele>
        <time>2012-06-24T13:52:57Z</time>
      </trkpt>
      <trkpt lat="44.35156" lon="6.35875">
        <ele>1160.099976</ele>
        <time>2012-06-24T13:53:02Z</time>
      </trkpt>
      <trkpt lat="44.35156" lon="6.35874">
        <ele>1160</ele>
        <time>2012-06-24T13:53:03Z</time>
      </trkpt>
      <trkpt lat="44.35167" lon="6.35856">
        <ele>1160</ele>
        <time>2012-06-24T13:53:40Z</time>
      </trkpt>
      <trkpt lat="44.3517" lon="6.35845">
        <ele>1159.900024</ele>
        <time>2012-06-24T13:53:48Z</time>
      </trkpt>
      <trkpt lat="44.3517" lon="6.35833">
        <ele>1158.800049</ele>
        <time>2012-06-24T13:54:00Z</time>
      </trkpt>
      <trkpt lat="44.35175" lon="6.35824">
        <ele>1158.699951</ele>
        <time>2012-06-24T13:54:10Z</time>
      </trkpt>
      <trkpt lat="44.35176" lon="6.35823">
        <ele>1158.900024</ele>
        <time>2012-06-24T13:54:11Z</time>
      </trkpt>
      <trkpt lat="44.35187" lon="6.35809">
        <ele>1158.400024</ele>
        <time>2012-06-24T13:54:23Z</time>
      </trkpt>
      <trkpt lat="44.35192" lon="6.35799">
        <ele>1158.300049</ele>
        <time>2012-06-24T13:54:30Z</time>
      </trkpt>
      <trkpt lat="44.35193" lon="6.35787">
        <ele>1158.599976</ele>
        <time>2012-06-24T13:54:41Z</time>
      </trkpt>
      <trkpt lat="44.352" lon="6.35779">
        <ele>1158.300049</ele>
        <time>2012-06-24T13:54:48Z</time>
      </trkpt>
      <trkpt lat="44.35205" lon="6.35769">
        <ele>1158.300049</ele>
        <time>2012-06-24T13:54:57Z</time>
      </trkpt>
      <trkpt lat="44.35212" lon="6.35762">
        <ele>1158.300049</ele>
        <time>2012-06-24T13:55:05Z</time>
      </trkpt>
      <trkpt lat="44.35218" lon="6.35753">
        <ele>1158.400024</ele>
        <time>2012-06-24T13:55:13Z</time>
      </trkpt>
      <trkpt lat="44.35219" lon="6.35752">
        <ele>1158.5</ele>
        <time>2012-06-24T13:55:14Z</time>
      </trkpt>
      <trkpt lat="44.35229" lon="6.35737">
        <ele>1158</ele>
        <time>2012-06-24T13:55:29Z</time>
      </trkpt>
      <trkpt lat="44.35236" lon="6.35728">
        <ele>1158.5</ele>
        <time>2012-06-24T13:55:38Z</time>
      </trkpt>
      <trkpt lat="44.35241" lon="6.3572">
        <ele>1158.400024</ele>
        <time>2012-06-24T13:55:46Z</time>
      </trkpt>
      <trkpt lat="44.35245" lon="6.3571">
        <ele>1158.300049</ele>
        <time>2012-06-24T13:55:53Z</time>
      </trkpt>
      <trkpt lat="44.35252" lon="6.35708">
        <ele>1158.400024</ele>
        <time>2012-06-24T13:55:56Z</time>
      </trkpt>
      <trkpt lat="44.35258" lon="6.35702">
        <ele>1157.699951</ele>
        <time>2012-06-24T13:56:01Z</time>
      </trkpt>
      <trkpt lat="44.35258" lon="6.3569">
        <ele>1157.900024</ele>
        <time>2012-06-24T13:56:08Z</time>
      </trkpt>
      <trkpt lat="44.35253" lon="6.35681">
        <ele>1158</ele>
        <time>2012-06-24T13:56:16Z</time>
      </trkpt>
      <trkpt lat="44.35252" lon="6.3568">
        <ele>1157.900024</ele>
        <time>2012-06-24T13:56:17Z</time>
      </trkpt>
      <trkpt lat="44.35252" lon="6.35668">
        <ele>1158.300049</ele>
        <time>2012-06-24T13:57:35Z</time>
      </trkpt>
      <trkpt lat="44.35245" lon="6.35648">
        <ele>1157.699951</ele>
        <time>2012-06-24T13:57:54Z</time>
      </trkpt>
      <trkpt lat="44.35245" lon="6.35635">
        <ele>1159.099976</ele>
        <time>2012-06-24T14:06:54Z</time>
      </trkpt>
      <trkpt lat="44.35246" lon="6.35635">
        <ele>1159</ele>
        <time>2012-06-24T14:06:55Z</time>
      </trkpt>
      <trkpt lat="44.35252" lon="6.35613">
        <ele>1159.699951</ele>
        <time>2012-06-24T14:07:26Z</time>
      </trkpt>
      <trkpt lat="44.35259" lon="6.35608">
        <ele>1159.099976</ele>
        <time>2012-06-24T14:07:35Z</time>
      </trkpt>
      <trkpt lat="44.3525" lon="6.35607">
        <ele>1159.5</ele>
        <time>2012-06-24T14:09:42Z</time>
      </trkpt>
      <trkpt lat="44.3525" lon="6.35607">
        <ele>1159.5</ele>
        <time>2012-06-24T14:09:43Z</time>
      </trkpt>
      <trkpt lat="44.35249" lon="6.35606">
        <ele>1160.400024</ele>
        <time>2012-06-24T14:16:41Z</time>
      </trkpt>
      <trkpt lat="44.3525" lon="6.35606">
        <ele>1160.400024</ele>
        <time>2012-06-24T14:16:42Z</time>
      </trkpt>
      <trkpt lat="44.35244" lon="6.35617">
        <ele>1159.5</ele>
        <time>2012-06-24T14:19:18Z</time>
      </trkpt>
      <trkpt lat="44.35245" lon="6.35616">
        <ele>1159.800049</ele>
        <time>2012-06-24T14:20:22Z</time>
      </trkpt>
      <trkpt lat="44.35246" lon="6.35615">
        <ele>1159.800049</ele>
        <time>2012-06-24T14:20:23Z</time>
      </trkpt>
      <trkpt lat="44.35251" lon="6.35605">
        <ele>1158.5</ele>
        <time>2012-06-24T14:32:12Z</time>
      </trkpt>
      <trkpt lat="44.35248" lon="6.35605">
        <ele>1158.599976</ele>
        <time>2012-06-24T14:32:37Z</time>
      </trkpt>
      <trkpt lat="44.35239" lon="6.35608">
        <ele>1158.099976</ele>
        <time>2012-06-24T14:32:45Z</time>
      </trkpt>
      <trkpt lat="44.35234" lon="6.35611">
        <ele>1158.099976</ele>
        <time>2012-06-24T14:32:48Z</time>
      </trkpt>
      <trkpt lat="44.35227" lon="6.35619">
        <ele>1158.400024</ele>
        <time>2012-06-24T14:32:51Z</time>
      </trkpt>
      <trkpt lat="44.35222" lon="6.35628">
        <ele>1158.5</ele>
        <time>2012-06-24T14:32:59Z</time>
      </trkpt>
      <trkpt lat="44.35214" lon="6.35633">
        <ele>1158.400024</ele>
        <time>2012-06-24T14:33:08Z</time>
      </trkpt>
      <trkpt lat="44.35209" lon="6.35623">
        <ele>1158.300049</ele>
        <time>2012-06-24T14:33:27Z</time>
      </trkpt>
      <trkpt lat="44.3521" lon="6.35623">
        <ele>1158.400024</ele>
        <time>2012-06-24T14:33:28Z</time>
      </trkpt>
      <trkpt lat="44.35199" lon="6.35604">
        <ele>1158.099976</ele>
        <time>2012-06-24T14:33:50Z</time>
      </trkpt>
      <trkpt lat="44.35192" lon="6.3561">
        <ele>1157.599976</ele>
        <time>2012-06-24T14:36:19Z</time>
      </trkpt>
      <trkpt lat="44.35191" lon="6.35611">
        <ele>1157.5</ele>
        <time>2012-06-24T14:36:20Z</time>
      </trkpt>
      <trkpt lat="44.35177" lon="6.35619">
        <ele>1155.800049</ele>
        <time>2012-06-24T14:36:36Z</time>
      </trkpt>
      <trkpt lat="44.35171" lon="6.35628">
        <ele>1155.900024</ele>
        <time>2012-06-24T14:36:44Z</time>
      </trkpt>
      <trkpt lat="44.35167" lon="6.35637">
        <ele>1155.199951</ele>
        <time>2012-06-24T14:36:52Z</time>
      </trkpt>
      <trkpt lat="44.35159" lon="6.35641">
        <ele>1155</ele>
        <time>2012-06-24T14:37:18Z</time>
      </trkpt>
      <trkpt lat="44.35155" lon="6.35652">
        <ele>1156.199951</ele>
        <time>2012-06-24T14:38:02Z</time>
      </trkpt>
      <trkpt lat="44.35155" lon="6.35653">
        <ele>1156.5</ele>
        <time>2012-06-24T14:38:03Z</time>
      </trkpt>
      <trkpt lat="44.3514" lon="6.35653">
        <ele>1156.900024</ele>
        <time>2012-06-24T14:38:27Z</time>
      </trkpt>
      <trkpt lat="44.35134" lon="6.35645">
        <ele>1156.900024</ele>
        <time>2012-06-24T14:38:35Z</time>
      </trkpt>
      <trkpt lat="44.35127" lon="6.35639">
        <ele>1157</ele>
        <time>2012-06-24T14:38:43Z</time>
      </trkpt>
      <trkpt lat="44.3512" lon="6.35632">
        <ele>1160.5</ele>
        <time>2012-06-24T14:40:56Z</time>
      </trkpt>
      <trkpt lat="44.35119" lon="6.35632">
        <ele>1160.5</ele>
        <time>2012-06-24T14:40:57Z</time>
      </trkpt>
      <trkpt lat="44.35111" lon="6.35637">
        <ele>1168.699951</ele>
        <time>2012-06-24T14:44:59Z</time>
      </trkpt>
      <trkpt lat="44.35099" lon="6.35654">
        <ele>1168.800049</ele>
        <time>2012-06-24T14:45:28Z</time>
      </trkpt>
      <trkpt lat="44.35091" lon="6.3566">
        <ele>1174.199951</ele>
        <time>2012-06-24T14:48:09Z</time>
      </trkpt>
      <trkpt lat="44.3509" lon="6.3566">
        <ele>1174.099976</ele>
        <time>2012-06-24T14:48:10Z</time>
      </trkpt>
      <trkpt lat="44.35074" lon="6.35668">
        <ele>1173.800049</ele>
        <time>2012-06-24T14:48:25Z</time>
      </trkpt>
      <trkpt lat="44.35066" lon="6.3567">
        <ele>1175.199951</ele>
        <time>2012-06-24T14:49:35Z</time>
      </trkpt>
      <trkpt lat="44.35065" lon="6.3567">
        <ele>1175.300049</ele>
        <time>2012-06-24T14:49:36Z</time>
      </trkpt>
      <trkpt lat="44.35057" lon="6.35694">
        <ele>1176.699951</ele>
        <time>2012-06-24T14:50:33Z</time>
      </trkpt>
      <trkpt lat="44.35048" lon="6.35695">
        <ele>1179.800049</ele>
        <time>2012-06-24T14:52:12Z</time>
      </trkpt>
      <trkpt lat="44.35047" lon="6.35697">
        <ele>1179.900024</ele>
        <time>2012-06-24T14:52:13Z</time>
      </trkpt>
      <trkpt lat="44.35051" lon="6.357">
        <ele>1183</ele>
        <time>2012-06-24T14:54:27Z</time>
      </trkpt>
      <trkpt lat="44.35052" lon="6.357">
        <ele>1183.199951</ele>
        <time>2012-06-24T14:54:28Z</time>
      </trkpt>
      <trkpt lat="44.35035" lon="6.35706">
        <ele>1185.199951</ele>
        <time>2012-06-24T14:55:24Z</time>
      </trkpt>
      <trkpt lat="44.35044" lon="6.35701">
        <ele>1189.300049</ele>
        <time>2012-06-24T14:57:01Z</time>
      </trkpt>
      <trkpt lat="44.35044" lon="6.35701">
        <ele>1189.400024</ele>
        <time>2012-06-24T14:57:02Z</time>
      </trkpt>
      <trkpt lat="44.35045" lon="6.35686">
        <ele>1192.300049</ele>
        <time>2012-06-24T14:58:30Z</time>
      </trkpt>
      <trkpt lat="44.35045" lon="6.35686">
        <ele>1192.300049</ele>
        <time>2012-06-24T14:58:31Z</time>
      </trkpt>
      <trkpt lat="44.35029" lon="6.35682">
        <ele>1193.800049</ele>
        <time>2012-06-24T14:59:27Z</time>
      </trkpt>
      <trkpt lat="44.35026" lon="6.35671">
        <ele>1193.800049</ele>
        <time>2012-06-24T14:59:33Z</time>
      </trkpt>
      <trkpt lat="44.35025" lon="6.35669">
        <ele>1193.800049</ele>
        <time>2012-06-24T14:59:34Z</time>
      </trkpt>
      <trkpt lat="44.3502" lon="6.35653">
        <ele>1193.699951</ele>
        <time>2012-06-24T14:59:59Z</time>
      </trkpt>
      <trkpt lat="44.35013" lon="6.35655">
        <ele>1193.800049</ele>
        <time>2012-06-24T15:00:05Z</time>
      </trkpt>
      <trkpt lat="44.35005" lon="6.3566">
        <ele>1193.699951</ele>
        <time>2012-06-24T15:00:11Z</time>
      </trkpt>
      <trkpt lat="44.35013" lon="6.35659">
        <ele>1194.5</ele>
        <time>2012-06-24T15:00:25Z</time>
      </trkpt>
      <trkpt lat="44.35004" lon="6.35662">
        <ele>1197.099976</ele>
        <time>2012-06-24T15:01:45Z</time>
      </trkpt>
      <trkpt lat="44.35004" lon="6.35661">
        <ele>1197.099976</ele>
        <time>2012-06-24T15:01:46Z</time>
      </trkpt>
      <trkpt lat="44.34995" lon="6.35659">
        <ele>1198.800049</ele>
        <time>2012-06-24T15:03:02Z</time>
      </trkpt>
      <trkpt lat="44.35007" lon="6.3564">
        <ele>1204.099976</ele>
        <time>2012-06-24T15:04:12Z</time>
      </trkpt>
      <trkpt lat="44.35008" lon="6.3564">
        <ele>1204.099976</ele>
        <time>2012-06-24T15:04:13Z</time>
      </trkpt>
      <trkpt lat="44.35005" lon="6.35616">
        <ele>1207.199951</ele>
        <time>2012-06-24T15:04:36Z</time>
      </trkpt>
      <trkpt lat="44.35003" lon="6.35605">
        <ele>1208</ele>
        <time>2012-06-24T15:04:48Z</time>
      </trkpt>
      <trkpt lat="44.35" lon="6.35594">
        <ele>1209.599976</ele>
        <time>2012-06-24T15:04:59Z</time>
      </trkpt>
      <trkpt lat="44.35" lon="6.35583">
        <ele>1210.5</ele>
        <time>2012-06-24T15:05:09Z</time>
      </trkpt>
      <trkpt lat="44.34999" lon="6.3557">
        <ele>1211.099976</ele>
        <time>2012-06-24T15:05:25Z</time>
      </trkpt>
      <trkpt lat="44.34998" lon="6.3557">
        <ele>1211</ele>
        <time>2012-06-24T15:05:26Z</time>
      </trkpt>
      <trkpt lat="44.34992" lon="6.35548">
        <ele>1214.599976</ele>
        <time>2012-06-24T15:06:53Z</time>
      </trkpt>
      <trkpt lat="44.34991" lon="6.35548">
        <ele>1214.800049</ele>
        <time>2012-06-24T15:06:54Z</time>
      </trkpt>
      <trkpt lat="44.34988" lon="6.35536">
        <ele>1218.5</ele>
        <time>2012-06-24T15:10:13Z</time>
      </trkpt>
      <trkpt lat="44.34971" lon="6.35543">
        <ele>1218</ele>
        <time>2012-06-24T15:12:07Z</time>
      </trkpt>
      <trkpt lat="44.34972" lon="6.35539">
        <ele>1218.900024</ele>
        <time>2012-06-24T15:12:11Z</time>
      </trkpt>
      <trkpt lat="44.34986" lon="6.35539">
        <ele>1218</ele>
        <time>2012-06-24T15:14:54Z</time>
      </trkpt>
      <trkpt lat="44.34986" lon="6.3554">
        <ele>1218.599976</ele>
        <time>2012-06-24T15:14:56Z</time>
      </trkpt>
      <trkpt lat="44.34987" lon="6.35537">
        <ele>1218.800049</ele>
        <time>2012-06-24T15:21:14Z</time>
      </trkpt>
      <trkpt lat="44.34989" lon="6.35538">
        <ele>1218.800049</ele>
        <time>2012-06-24T15:21:15Z</time>
      </trkpt>
      <trkpt lat="44.34997" lon="6.35558">
        <ele>1221.800049</ele>
        <time>2012-06-24T15:24:00Z</time>
      </trkpt>
      <trkpt lat="44.34998" lon="6.35558">
        <ele>1222</ele>
        <time>2012-06-24T15:24:01Z</time>
      </trkpt>
      <trkpt lat="44.35011" lon="6.35564">
        <ele>1224.300049</ele>
        <time>2012-06-24T15:24:47Z</time>
      </trkpt>
      <trkpt lat="44.35019" lon="6.3556">
        <ele>1225</ele>
        <time>2012-06-24T15:24:55Z</time>
      </trkpt>
      <trkpt lat="44.35026" lon="6.35559">
        <ele>1225.199951</ele>
        <time>2012-06-24T15:25:00Z</time>
      </trkpt>
      <trkpt lat="44.35034" lon="6.35554">
        <ele>1225.300049</ele>
        <time>2012-06-24T15:25:16Z</time>
      </trkpt>
      <trkpt lat="44.35035" lon="6.35552">
        <ele>1225.199951</ele>
        <time>2012-06-24T15:25:17Z</time>
      </trkpt>
      <trkpt lat="44.35045" lon="6.35537">
        <ele>1228.199951</ele>
        <time>2012-06-24T15:27:21Z</time>
      </trkpt>
      <trkpt lat="44.35045" lon="6.35536">
        <ele>1228.400024</ele>
        <time>2012-06-24T15:27:22Z</time>
      </trkpt>
      <trkpt lat="44.35052" lon="6.35558">
        <ele>1232.300049</ele>
        <time>2012-06-24T15:28:08Z</time>
      </trkpt>
      <trkpt lat="44.35061" lon="6.3556">
        <ele>1232.699951</ele>
        <time>2012-06-24T15:29:36Z</time>
      </trkpt>
      <trkpt lat="44.35061" lon="6.3556">
        <ele>1232.800049</ele>
        <time>2012-06-24T15:29:37Z</time>
      </trkpt>
      <trkpt lat="44.35059" lon="6.35571">
        <ele>1232.5</ele>
        <time>2012-06-24T15:30:34Z</time>
      </trkpt>
      <trkpt lat="44.35063" lon="6.35557">
        <ele>1233</ele>
        <time>2012-06-24T15:30:43Z</time>
      </trkpt>
      <trkpt lat="44.35064" lon="6.35554">
        <ele>1233.400024</ele>
        <time>2012-06-24T15:30:45Z</time>
      </trkpt>
      <trkpt lat="44.35068" lon="6.35532">
        <ele>1235.099976</ele>
        <time>2012-06-24T15:31:12Z</time>
      </trkpt>
      <trkpt lat="44.35076" lon="6.35538">
        <ele>1236.5</ele>
        <time>2012-06-24T15:32:02Z</time>
      </trkpt>
      <trkpt lat="44.35076" lon="6.35538">
        <ele>1236.400024</ele>
        <time>2012-06-24T15:32:03Z</time>
      </trkpt>
      <trkpt lat="44.35075" lon="6.35522">
        <ele>1237.199951</ele>
        <time>2012-06-24T15:33:18Z</time>
      </trkpt>
      <trkpt lat="44.35077" lon="6.35521">
        <ele>1237.400024</ele>
        <time>2012-06-24T15:33:19Z</time>
      </trkpt>
      <trkpt lat="44.35082" lon="6.35513">
        <ele>1237.800049</ele>
        <time>2012-06-24T15:34:28Z</time>
      </trkpt>
      <trkpt lat="44.35072" lon="6.35516">
        <ele>1239.300049</ele>
        <time>2012-06-24T15:40:51Z</time>
      </trkpt>
      <trkpt lat="44.3509" lon="6.35497">
        <ele>1243</ele>
        <time>2012-06-24T15:42:06Z</time>
      </trkpt>
      <trkpt lat="44.3509" lon="6.35496">
        <ele>1244.099976</ele>
        <time>2012-06-24T15:42:08Z</time>
      </trkpt>
      <trkpt lat="44.35096" lon="6.35526">
        <ele>1246</ele>
        <time>2012-06-24T15:42:35Z</time>
      </trkpt>
      <trkpt lat="44.35104" lon="6.35519">
        <ele>1247</ele>
        <time>2012-06-24T15:42:42Z</time>
      </trkpt>
      <trkpt lat="44.35109" lon="6.3551">
        <ele>1248.099976</ele>
        <time>2012-06-24T15:42:46Z</time>
      </trkpt>
      <trkpt lat="44.35113" lon="6.35499">
        <ele>1249.599976</ele>
        <time>2012-06-24T15:42:59Z</time>
      </trkpt>
      <trkpt lat="44.35118" lon="6.3549">
        <ele>1251.199951</ele>
        <time>2012-06-24T15:43:36Z</time>
      </trkpt>
      <trkpt lat="44.35119" lon="6.35489">
        <ele>1251.300049</ele>
        <time>2012-06-24T15:43:37Z</time>
      </trkpt>
      <trkpt lat="44.35132" lon="6.35474">
        <ele>1253.400024</ele>
        <time>2012-06-24T15:43:57Z</time>
      </trkpt>
      <trkpt lat="44.3513" lon="6.35462">
        <ele>1253.900024</ele>
        <time>2012-06-24T15:44:02Z</time>
      </trkpt>
      <trkpt lat="44.35138" lon="6.35457">
        <ele>1255.699951</ele>
        <time>2012-06-24T15:44:25Z</time>
      </trkpt>
      <trkpt lat="44.35144" lon="6.3545">
        <ele>1256.800049</ele>
        <time>2012-06-24T15:44:34Z</time>
      </trkpt>
      <trkpt lat="44.35143" lon="6.35438">
        <ele>1259.699951</ele>
        <time>2012-06-24T15:45:08Z</time>
      </trkpt>
      <trkpt lat="44.35143" lon="6.35437">
        <ele>1259.800049</ele>
        <time>2012-06-24T15:45:09Z</time>
      </trkpt>
      <trkpt lat="44.35145" lon="6.35451">
        <ele>1261.699951</ele>
        <time>2012-06-24T15:48:47Z</time>
      </trkpt>
      <trkpt lat="44.35161" lon="6.35457">
        <ele>1261.900024</ele>
        <time>2012-06-24T15:50:48Z</time>
      </trkpt>
      <trkpt lat="44.35162" lon="6.35457">
        <ele>1261.800049</ele>
        <time>2012-06-24T15:50:49Z</time>
      </trkpt>
      <trkpt lat="44.35192" lon="6.35423">
        <ele>1264.400024</ele>
        <time>2012-06-24T15:54:46Z</time>
      </trkpt>
      <trkpt lat="44.35161" lon="6.3544">
        <ele>1266</ele>
        <time>2012-06-24T15:56:26Z</time>
      </trkpt>
      <trkpt lat="44.35167" lon="6.35429">
        <ele>1268.5</ele>
        <time>2012-06-24T15:56:59Z</time>
      </trkpt>
      <trkpt lat="44.35176" lon="6.3543">
        <ele>1270.599976</ele>
        <time>2012-06-24T15:57:11Z</time>
      </trkpt>
      <trkpt lat="44.35182" lon="6.35422">
        <ele>1272.400024</ele>
        <time>2012-06-24T15:57:22Z</time>
      </trkpt>
      <trkpt lat="44.35187" lon="6.35412">
        <ele>1273.400024</ele>
        <time>2012-06-24T15:57:33Z</time>
      </trkpt>
      <trkpt lat="44.35193" lon="6.354">
        <ele>1274.400024</ele>
        <time>2012-06-24T15:57:59Z</time>
      </trkpt>
      <trkpt lat="44.35193" lon="6.35398">
        <ele>1274.699951</ele>
        <time>2012-06-24T15:58:00Z</time>
      </trkpt>
      <trkpt lat="44.35206" lon="6.35385">
        <ele>1279.099976</ele>
        <time>2012-06-24T15:58:28Z</time>
      </trkpt>
      <trkpt lat="44.35214" lon="6.3538">
        <ele>1280.599976</ele>
        <time>2012-06-24T15:59:16Z</time>
      </trkpt>
      <trkpt lat="44.35215" lon="6.3538">
        <ele>1280.5</ele>
        <time>2012-06-24T15:59:17Z</time>
      </trkpt>
      <trkpt lat="44.35231" lon="6.35374">
        <ele>1283.800049</ele>
        <time>2012-06-24T15:59:45Z</time>
      </trkpt>
      <trkpt lat="44.35239" lon="6.3537">
        <ele>1285.699951</ele>
        <time>2012-06-24T16:00:28Z</time>
      </trkpt>
      <trkpt lat="44.3524" lon="6.35369">
        <ele>1285.800049</ele>
        <time>2012-06-24T16:00:29Z</time>
      </trkpt>
      <trkpt lat="44.35248" lon="6.35366">
        <ele>1287.699951</ele>
        <time>2012-06-24T16:01:59Z</time>
      </trkpt>
      <trkpt lat="44.35253" lon="6.35377">
        <ele>1295.800049</ele>
        <time>2012-06-24T16:09:43Z</time>
      </trkpt>
      <trkpt lat="44.35248" lon="6.35365">
        <ele>1293.400024</ele>
        <time>2012-06-24T16:12:07Z</time>
      </trkpt>
      <trkpt lat="44.3524" lon="6.35371">
        <ele>1292.300049</ele>
        <time>2012-06-24T16:14:05Z</time>
      </trkpt>
      <trkpt lat="44.35247" lon="6.35376">
        <ele>1291.300049</ele>
        <time>2012-06-24T16:15:40Z</time>
      </trkpt>
      <trkpt lat="44.35247" lon="6.35376">
        <ele>1291</ele>
        <time>2012-06-24T16:15:41Z</time>
      </trkpt>
      <trkpt lat="44.35245" lon="6.35372">
        <ele>1291.300049</ele>
        <time>2012-06-24T16:16:30Z</time>
      </trkpt>
      <trkpt lat="44.35253" lon="6.35368">
        <ele>1288.800049</ele>
        <time>2012-06-24T16:18:46Z</time>
      </trkpt>
      <trkpt lat="44.35254" lon="6.35368">
        <ele>1288.699951</ele>
        <time>2012-06-24T16:18:47Z</time>
      </trkpt>
      <trkpt lat="44.35244" lon="6.35365">
        <ele>1278.300049</ele>
        <time>2012-06-24T16:19:48Z</time>
      </trkpt>
      <trkpt lat="44.35228" lon="6.35371">
        <ele>1273.300049</ele>
        <time>2012-06-24T16:20:57Z</time>
      </trkpt>
      <trkpt lat="44.35228" lon="6.3537">
        <ele>1273.400024</ele>
        <time>2012-06-24T16:20:58Z</time>
      </trkpt>
      <trkpt lat="44.35212" lon="6.35377">
        <ele>1269.300049</ele>
        <time>2012-06-24T16:21:25Z</time>
      </trkpt>
      <trkpt lat="44.35205" lon="6.35385">
        <ele>1267.699951</ele>
        <time>2012-06-24T16:21:47Z</time>
      </trkpt>
      <trkpt lat="44.35198" lon="6.35392">
        <ele>1265.400024</ele>
        <time>2012-06-24T16:21:59Z</time>
      </trkpt>
      <trkpt lat="44.35197" lon="6.35392">
        <ele>1265.099976</ele>
        <time>2012-06-24T16:22:00Z</time>
      </trkpt>
      <trkpt lat="44.35187" lon="6.3541">
        <ele>1262.900024</ele>
        <time>2012-06-24T16:22:23Z</time>
      </trkpt>
      <trkpt lat="44.3518" lon="6.35417">
        <ele>1262.699951</ele>
        <time>2012-06-24T16:22:31Z</time>
      </trkpt>
      <trkpt lat="44.35174" lon="6.35426">
        <ele>1261.400024</ele>
        <time>2012-06-24T16:22:41Z</time>
      </trkpt>
      <trkpt lat="44.35171" lon="6.35438">
        <ele>1258.300049</ele>
        <time>2012-06-24T16:22:58Z</time>
      </trkpt>
      <trkpt lat="44.35165" lon="6.3546">
        <ele>1254</ele>
        <time>2012-06-24T16:24:06Z</time>
      </trkpt>
      <trkpt lat="44.35166" lon="6.3546">
        <ele>1253.599976</ele>
        <time>2012-06-24T16:24:10Z</time>
      </trkpt>
      <trkpt lat="44.35151" lon="6.35452">
        <ele>1249.300049</ele>
        <time>2012-06-24T16:24:37Z</time>
      </trkpt>
      <trkpt lat="44.35145" lon="6.35443">
        <ele>1247.699951</ele>
        <time>2012-06-24T16:24:51Z</time>
      </trkpt>
      <trkpt lat="44.35151" lon="6.35435">
        <ele>1246.300049</ele>
        <time>2012-06-24T16:25:16Z</time>
      </trkpt>
      <trkpt lat="44.35152" lon="6.35434">
        <ele>1246.199951</ele>
        <time>2012-06-24T16:25:17Z</time>
      </trkpt>
      <trkpt lat="44.35136" lon="6.35442">
        <ele>1243.5</ele>
        <time>2012-06-24T16:26:02Z</time>
      </trkpt>
      <trkpt lat="44.3513" lon="6.35451">
        <ele>1241.800049</ele>
        <time>2012-06-24T16:26:36Z</time>
      </trkpt>
      <trkpt lat="44.3513" lon="6.35453">
        <ele>1241.5</ele>
        <time>2012-06-24T16:26:37Z</time>
      </trkpt>
      <trkpt lat="44.35118" lon="6.3546">
        <ele>1237.400024</ele>
        <time>2012-06-24T16:28:17Z</time>
      </trkpt>
      <trkpt lat="44.35117" lon="6.35459">
        <ele>1237.199951</ele>
        <time>2012-06-24T16:28:18Z</time>
      </trkpt>
      <trkpt lat="44.35114" lon="6.35484">
        <ele>1234.599976</ele>
        <time>2012-06-24T16:29:07Z</time>
      </trkpt>
      <trkpt lat="44.35112" lon="6.35496">
        <ele>1233.900024</ele>
        <time>2012-06-24T16:29:22Z</time>
      </trkpt>
      <trkpt lat="44.35112" lon="6.35496">
        <ele>1233.900024</ele>
        <time>2012-06-24T16:29:23Z</time>
      </trkpt>
      <trkpt lat="44.35103" lon="6.35511">
        <ele>1232.199951</ele>
        <time>2012-06-24T16:29:54Z</time>
      </trkpt>
      <trkpt lat="44.35096" lon="6.3552">
        <ele>1229.800049</ele>
        <time>2012-06-24T16:30:11Z</time>
      </trkpt>
      <trkpt lat="44.35088" lon="6.35523">
        <ele>1228.300049</ele>
        <time>2012-06-24T16:30:27Z</time>
      </trkpt>
      <trkpt lat="44.35087" lon="6.35522">
        <ele>1228.300049</ele>
        <time>2012-06-24T16:30:28Z</time>
      </trkpt>
      <trkpt lat="44.35082" lon="6.35543">
        <ele>1224.5</ele>
        <time>2012-06-24T16:31:03Z</time>
      </trkpt>
      <trkpt lat="44.35081" lon="6.35554">
        <ele>1223.599976</ele>
        <time>2012-06-24T16:31:13Z</time>
      </trkpt>
      <trkpt lat="44.35082" lon="6.35566">
        <ele>1220.800049</ele>
        <time>2012-06-24T16:31:54Z</time>
      </trkpt>
      <trkpt lat="44.35082" lon="6.35567">
        <ele>1220.900024</ele>
        <time>2012-06-24T16:31:55Z</time>
      </trkpt>
      <trkpt lat="44.35099" lon="6.35573">
        <ele>1219</ele>
        <time>2012-06-24T16:32:34Z</time>
      </trkpt>
      <trkpt lat="44.35089" lon="6.35561">
        <ele>1218</ele>
        <time>2012-06-24T16:34:14Z</time>
      </trkpt>
      <trkpt lat="44.35086" lon="6.35559">
        <ele>1219.099976</ele>
        <time>2012-06-24T16:34:31Z</time>
      </trkpt>
      <trkpt lat="44.35115" lon="6.35616">
        <ele>1218</ele>
        <time>2012-06-24T16:34:53Z</time>
      </trkpt>
      <trkpt lat="44.35093" lon="6.35571">
        <ele>1217</ele>
        <time>2012-06-24T16:35:25Z</time>
      </trkpt>
      <trkpt lat="44.35099" lon="6.35585">
        <ele>1218</ele>
        <time>2012-06-24T16:36:30Z</time>
      </trkpt>
      <trkpt lat="44.35098" lon="6.35586">
        <ele>1218.400024</ele>
        <time>2012-06-24T16:36:35Z</time>
      </trkpt>
      <trkpt lat="44.351" lon="6.35565">
        <ele>1218.599976</ele>
        <time>2012-06-24T16:37:08Z</time>
      </trkpt>
      <trkpt lat="44.35106" lon="6.35556">
        <ele>1221</ele>
        <time>2012-06-24T16:37:28Z</time>
      </trkpt>
      <trkpt lat="44.35097" lon="6.35563">
        <ele>1220.900024</ele>
        <time>2012-06-24T16:37:47Z</time>
      </trkpt>
      <trkpt lat="44.35097" lon="6.35562">
        <ele>1221</ele>
        <time>2012-06-24T16:37:48Z</time>
      </trkpt>
      <trkpt lat="44.35112" lon="6.35561">
        <ele>1221.199951</ele>
        <time>2012-06-24T16:38:43Z</time>
      </trkpt>
      <trkpt lat="44.35121" lon="6.35564">
        <ele>1220.599976</ele>
        <time>2012-06-24T16:38:55Z</time>
      </trkpt>
      <trkpt lat="44.35121" lon="6.35564">
        <ele>1220.400024</ele>
        <time>2012-06-24T16:38:56Z</time>
      </trkpt>
      <trkpt lat="44.35138" lon="6.35567">
        <ele>1217.300049</ele>
        <time>2012-06-24T16:39:37Z</time>
      </trkpt>
      <trkpt lat="44.35138" lon="6.35578">
        <ele>1214.800049</ele>
        <time>2012-06-24T16:40:18Z</time>
      </trkpt>
      <trkpt lat="44.35139" lon="6.3558">
        <ele>1214.800049</ele>
        <time>2012-06-24T16:40:19Z</time>
      </trkpt>
      <trkpt lat="44.35135" lon="6.35586">
        <ele>1211.300049</ele>
        <time>2012-06-24T16:40:54Z</time>
      </trkpt>
      <trkpt lat="44.3514" lon="6.35595">
        <ele>1209.400024</ele>
        <time>2012-06-24T16:41:07Z</time>
      </trkpt>
      <trkpt lat="44.35147" lon="6.356">
        <ele>1209.199951</ele>
        <time>2012-06-24T16:41:19Z</time>
      </trkpt>
      <trkpt lat="44.35148" lon="6.35601">
        <ele>1209.300049</ele>
        <time>2012-06-24T16:41:20Z</time>
      </trkpt>
      <trkpt lat="44.35163" lon="6.35611">
        <ele>1208</ele>
        <time>2012-06-24T16:42:02Z</time>
      </trkpt>
      <trkpt lat="44.35168" lon="6.35622">
        <ele>1208</ele>
        <time>2012-06-24T16:42:14Z</time>
      </trkpt>
      <trkpt lat="44.35177" lon="6.35629">
        <ele>1208</ele>
        <time>2012-06-24T16:42:29Z</time>
      </trkpt>
      <trkpt lat="44.35179" lon="6.3563">
        <ele>1208.300049</ele>
        <time>2012-06-24T16:42:31Z</time>
      </trkpt>
      <trkpt lat="44.35193" lon="6.35626">
        <ele>1208.800049</ele>
        <time>2012-06-24T16:42:40Z</time>
      </trkpt>
      <trkpt lat="44.35201" lon="6.35623">
        <ele>1208.900024</ele>
        <time>2012-06-24T16:42:46Z</time>
      </trkpt>
      <trkpt lat="44.35209" lon="6.35629">
        <ele>1208.699951</ele>
        <time>2012-06-24T16:42:52Z</time>
      </trkpt>
      <trkpt lat="44.35218" lon="6.35625">
        <ele>1209.099976</ele>
        <time>2012-06-24T16:43:03Z</time>
      </trkpt>
      <trkpt lat="44.35227" lon="6.35621">
        <ele>1209</ele>
        <time>2012-06-24T16:44:59Z</time>
      </trkpt>
      <trkpt lat="44.35227" lon="6.35621">
        <ele>1209.599976</ele>
        <time>2012-06-24T16:45:01Z</time>
      </trkpt>
      <trkpt lat="44.35211" lon="6.35634">
        <ele>1209</ele>
        <time>2012-06-24T16:46:13Z</time>
      </trkpt>
      <trkpt lat="44.3521" lon="6.35637">
        <ele>1208.900024</ele>
        <time>2012-06-24T16:46:14Z</time>
      </trkpt>
      <trkpt lat="44.35227" lon="6.35622">
        <ele>1209.599976</ele>
        <time>2012-06-24T16:47:01Z</time>
      </trkpt>
      <trkpt lat="44.35225" lon="6.35634">
        <ele>1209.099976</ele>
        <time>2012-06-24T16:47:47Z</time>
      </trkpt>
      <trkpt lat="44.35225" lon="6.35635">
        <ele>1209.099976</ele>
        <time>2012-06-24T16:47:48Z</time>
      </trkpt>
      <trkpt lat="44.35232" lon="6.3565">
        <ele>1209.599976</ele>
        <time>2012-06-24T16:48:12Z</time>
      </trkpt>
      <trkpt lat="44.35235" lon="6.35662">
        <ele>1209.099976</ele>
        <time>2012-06-24T16:48:29Z</time>
      </trkpt>
      <trkpt lat="44.35232" lon="6.35673">
        <ele>1209.300049</ele>
        <time>2012-06-24T16:48:45Z</time>
      </trkpt>
      <trkpt lat="44.35233" lon="6.35684">
        <ele>1209.5</ele>
        <time>2012-06-24T16:48:56Z</time>
      </trkpt>
      <trkpt lat="44.35233" lon="6.35686">
        <ele>1209.599976</ele>
        <time>2012-06-24T16:48:57Z</time>
      </trkpt>
      <trkpt lat="44.35241" lon="6.35708">
        <ele>1209</ele>
        <time>2012-06-24T16:49:09Z</time>
      </trkpt>
      <trkpt lat="44.35238" lon="6.35718">
        <ele>1209.300049</ele>
        <time>2012-06-24T16:49:18Z</time>
      </trkpt>
      <trkpt lat="44.3523" lon="6.35723">
        <ele>1209.599976</ele>
        <time>2012-06-24T16:49:24Z</time>
      </trkpt>
      <trkpt lat="44.35223" lon="6.35729">
        <ele>1211.099976</ele>
        <time>2012-06-24T16:50:37Z</time>
      </trkpt>
      <trkpt lat="44.35222" lon="6.3573">
        <ele>1210.900024</ele>
        <time>2012-06-24T16:50:38Z</time>
      </trkpt>
      <trkpt lat="44.35208" lon="6.35719">
        <ele>1207.599976</ele>
        <time>2012-06-24T16:51:16Z</time>
      </trkpt>
      <trkpt lat="44.35204" lon="6.35708">
        <ele>1206.800049</ele>
        <time>2012-06-24T16:51:22Z</time>
      </trkpt>
      <trkpt lat="44.35196" lon="6.35703">
        <ele>1204.300049</ele>
        <time>2012-06-24T16:51:40Z</time>
      </trkpt>
      <trkpt lat="44.35195" lon="6.35703">
        <ele>1204.300049</ele>
        <time>2012-06-24T16:51:41Z</time>
      </trkpt>
      <trkpt lat="44.35184" lon="6.3572">
        <ele>1202.599976</ele>
        <time>2012-06-24T16:52:00Z</time>
      </trkpt>
      <trkpt lat="44.35179" lon="6.35729">
        <ele>1202.099976</ele>
        <time>2012-06-24T16:52:08Z</time>
      </trkpt>
      <trkpt lat="44.35172" lon="6.35738">
        <ele>1201.099976</ele>
        <time>2012-06-24T16:52:18Z</time>
      </trkpt>
      <trkpt lat="44.35166" lon="6.35746">
        <ele>1200</ele>
        <time>2012-06-24T16:52:29Z</time>
      </trkpt>
      <trkpt lat="44.35158" lon="6.35752">
        <ele>1199.199951</ele>
        <time>2012-06-24T16:52:39Z</time>
      </trkpt>
      <trkpt lat="44.35151" lon="6.35757">
        <ele>1198.400024</ele>
        <time>2012-06-24T16:52:47Z</time>
      </trkpt>
      <trkpt lat="44.3515" lon="6.35757">
        <ele>1198.699951</ele>
        <time>2012-06-24T16:52:48Z</time>
      </trkpt>
      <trkpt lat="44.35139" lon="6.35774">
        <ele>1197.099976</ele>
        <time>2012-06-24T16:53:07Z</time>
      </trkpt>
      <trkpt lat="44.35134" lon="6.35784">
        <ele>1196.400024</ele>
        <time>2012-06-24T16:53:17Z</time>
      </trkpt>
      <trkpt lat="44.35126" lon="6.35789">
        <ele>1196.099976</ele>
        <time>2012-06-24T16:53:27Z</time>
      </trkpt>
      <trkpt lat="44.35121" lon="6.35798">
        <ele>1195.5</ele>
        <time>2012-06-24T16:53:36Z</time>
      </trkpt>
      <trkpt lat="44.35117" lon="6.35809">
        <ele>1195.800049</ele>
        <time>2012-06-24T16:53:48Z</time>
      </trkpt>
      <trkpt lat="44.35116" lon="6.3581">
        <ele>1195.599976</ele>
        <time>2012-06-24T16:53:49Z</time>
      </trkpt>
      <trkpt lat="44.35109" lon="6.3583">
        <ele>1196.599976</ele>
        <time>2012-06-24T16:54:07Z</time>
      </trkpt>
      <trkpt lat="44.35104" lon="6.35841">
        <ele>1196.900024</ele>
        <time>2012-06-24T16:54:16Z</time>
      </trkpt>
      <trkpt lat="44.35101" lon="6.35851">
        <ele>1197.800049</ele>
        <time>2012-06-24T16:54:24Z</time>
      </trkpt>
      <trkpt lat="44.35096" lon="6.35862">
        <ele>1198.099976</ele>
        <time>2012-06-24T16:54:35Z</time>
      </trkpt>
      <trkpt lat="44.3509" lon="6.35871">
        <ele>1198.5</ele>
        <time>2012-06-24T16:54:48Z</time>
      </trkpt>
      <trkpt lat="44.35087" lon="6.35882">
        <ele>1198.699951</ele>
        <time>2012-06-24T16:54:57Z</time>
      </trkpt>
      <trkpt lat="44.35086" lon="6.35883">
        <ele>1199.099976</ele>
        <time>2012-06-24T16:54:58Z</time>
      </trkpt>
      <trkpt lat="44.35078" lon="6.35902">
        <ele>1199.400024</ele>
        <time>2012-06-24T16:55:14Z</time>
      </trkpt>
      <trkpt lat="44.35075" lon="6.35912">
        <ele>1199.099976</ele>
        <time>2012-06-24T16:55:23Z</time>
      </trkpt>
      <trkpt lat="44.35071" lon="6.35923">
        <ele>1199.599976</ele>
        <time>2012-06-24T16:55:32Z</time>
      </trkpt>
      <trkpt lat="44.35067" lon="6.35933">
        <ele>1200</ele>
        <time>2012-06-24T16:55:43Z</time>
      </trkpt>
      <trkpt lat="44.35065" lon="6.35945">
        <ele>1200.699951</ele>
        <time>2012-06-24T16:55:54Z</time>
      </trkpt>
      <trkpt lat="44.3506" lon="6.35955">
        <ele>1201.5</ele>
        <time>2012-06-24T16:56:03Z</time>
      </trkpt>
      <trkpt lat="44.3506" lon="6.35956">
        <ele>1201.5</ele>
        <time>2012-06-24T16:56:04Z</time>
      </trkpt>
      <trkpt lat="44.35062" lon="6.35977">
        <ele>1202.400024</ele>
        <time>2012-06-24T16:56:23Z</time>
      </trkpt>
      <trkpt lat="44.35068" lon="6.35985">
        <ele>1203.199951</ele>
        <time>2012-06-24T16:56:33Z</time>
      </trkpt>
      <trkpt lat="44.35071" lon="6.35997">
        <ele>1204.400024</ele>
        <time>2012-06-24T16:56:48Z</time>
      </trkpt>
      <trkpt lat="44.35072" lon="6.36008">
        <ele>1203.199951</ele>
        <time>2012-06-24T16:57:01Z</time>
      </trkpt>
      <trkpt lat="44.35076" lon="6.36015">
        <ele>1202.5</ele>
        <time>2012-06-24T16:57:05Z</time>
      </trkpt>
      <trkpt lat="44.35079" lon="6.36017">
        <ele>1202.599976</ele>
        <time>2012-06-24T16:57:06Z</time>
      </trkpt>
      <trkpt lat="44.35066" lon="6.36035">
        <ele>1200.699951</ele>
        <time>2012-06-24T16:57:29Z</time>
      </trkpt>
      <trkpt lat="44.35061" lon="6.36044">
        <ele>1199.900024</ele>
        <time>2012-06-24T16:57:40Z</time>
      </trkpt>
      <trkpt lat="44.35055" lon="6.36053">
        <ele>1199.199951</ele>
        <time>2012-06-24T16:57:50Z</time>
      </trkpt>
      <trkpt lat="44.35052" lon="6.36065">
        <ele>1197.900024</ele>
        <time>2012-06-24T16:58:01Z</time>
      </trkpt>
      <trkpt lat="44.35045" lon="6.36072">
        <ele>1197.099976</ele>
        <time>2012-06-24T16:58:11Z</time>
      </trkpt>
      <trkpt lat="44.35045" lon="6.36073">
        <ele>1197</ele>
        <time>2012-06-24T16:58:12Z</time>
      </trkpt>
      <trkpt lat="44.3503" lon="6.36084">
        <ele>1195.5</ele>
        <time>2012-06-24T16:58:35Z</time>
      </trkpt>
      <trkpt lat="44.35021" lon="6.36085">
        <ele>1193.900024</ele>
        <time>2012-06-24T16:58:53Z</time>
      </trkpt>
      <trkpt lat="44.35013" lon="6.36076">
        <ele>1192</ele>
        <time>2012-06-24T16:59:14Z</time>
      </trkpt>
      <trkpt lat="44.35012" lon="6.36073">
        <ele>1192.599976</ele>
        <time>2012-06-24T16:59:16Z</time>
      </trkpt>
      <trkpt lat="44.3501" lon="6.36053">
        <ele>1191</ele>
        <time>2012-06-24T16:59:56Z</time>
      </trkpt>
      <trkpt lat="44.35002" lon="6.36046">
        <ele>1191.099976</ele>
        <time>2012-06-24T17:00:20Z</time>
      </trkpt>
      <trkpt lat="44.35002" lon="6.36045">
        <ele>1191.099976</ele>
        <time>2012-06-24T17:00:21Z</time>
      </trkpt>
      <trkpt lat="44.34992" lon="6.36027">
        <ele>1188.800049</ele>
        <time>2012-06-24T17:01:51Z</time>
      </trkpt>
      <trkpt lat="44.34991" lon="6.36026">
        <ele>1188.5</ele>
        <time>2012-06-24T17:01:52Z</time>
      </trkpt>
      <trkpt lat="44.3498" lon="6.36011">
        <ele>1186.5</ele>
        <time>2012-06-24T17:02:07Z</time>
      </trkpt>
      <trkpt lat="44.34977" lon="6.36001">
        <ele>1185.199951</ele>
        <time>2012-06-24T17:02:18Z</time>
      </trkpt>
      <trkpt lat="44.3497" lon="6.35992">
        <ele>1184.699951</ele>
        <time>2012-06-24T17:02:40Z</time>
      </trkpt>
      <trkpt lat="44.34976" lon="6.36001">
        <ele>1186.099976</ele>
        <time>2012-06-24T17:05:01Z</time>
      </trkpt>
      <trkpt lat="44.34977" lon="6.36001">
        <ele>1186.199951</ele>
        <time>2012-06-24T17:05:02Z</time>
      </trkpt>
      <trkpt lat="44.34978" lon="6.36">
        <ele>1187.199951</ele>
        <time>2012-06-24T17:05:26Z</time>
      </trkpt>
      <trkpt lat="44.34972" lon="6.35986">
        <ele>1188</ele>
        <time>2012-06-24T17:05:53Z</time>
      </trkpt>
      <trkpt lat="44.3498" lon="6.35997">
        <ele>1188</ele>
        <time>2012-06-24T17:06:02Z</time>
      </trkpt>
      <trkpt lat="44.34979" lon="6.35993">
        <ele>1188.900024</ele>
        <time>2012-06-24T17:06:06Z</time>
      </trkpt>
      <trkpt lat="44.35002" lon="6.35998">
        <ele>1191</ele>
        <time>2012-06-24T17:09:17Z</time>
      </trkpt>
      <trkpt lat="44.35003" lon="6.36">
        <ele>1192.300049</ele>
        <time>2012-06-24T17:09:21Z</time>
      </trkpt>
    </trkseg>
  </trk>
</gpx>